sensor_id;sensor_type;location;lat;lon;timestamp;temperature;humidity
6518;DHT22;3292;48.944;9.240;2023-02-15T00:01:30;-0.70;99.90
6518;DHT22;3292;48.944;9.240;2023-02-15T00:03:58;-0.70;99.90
6518;DHT22;3292;48.944;9.240;2023-02-15T00:06:25;-0.70;99.90
6518;DHT22;3292;48.944;9.240;2023-02-15T00:08:55;-0.80;99.90
6518;DHT22;3292;48.944;9.240;2023-02-15T00:11:22;-0.70;99.90
6518;DHT22;3292;48.944;9.240;2023-02-15T00:14:04;-0.70;99.90
6518;DHT22;3292;48.944;9.240;2023-02-15T00:16:31;-0.70;99.90
6518;DHT22;3292;48.944;9.240;2023-02-15T00:18:58;-0.60;99.90
6518;DHT22;3292;48.944;9.240;2023-02-15T00:21:27;-0.50;99.90
6518;DHT22;3292;48.944;9.240;2023-02-15T00:23:56;-0.50;99.90
6518;DHT22;3292;48.944;9.240;2023-02-15T00:26:23;-0.50;99.90
6518;DHT22;3292;48.944;9.240;2023-02-15T00:28:50;-0.60;99.90
6518;DHT22;3292;48.944;9.240;2023-02-15T00:31:17;-0.60;99.90
6518;DHT22;3292;48.944;9.240;2023-02-15T00:33:44;-0.70;99.90
6518;DHT22;3292;48.944;9.240;2023-02-15T00:36:11;-0.70;99.90
6518;DHT22;3292;48.944;9.240;2023-02-15T00:38:38;-0.80;99.90
6518;DHT22;3292;48.944;9.240;2023-02-15T00:41:07;-0.80;99.90
6518;DHT22;3292;48.944;9.240;2023-02-15T00:43:36;-0.80;99.90
6518;DHT22;3292;48.944;9.240;2023-02-15T00:46:04;-0.80;99.90
6518;DHT22;3292;48.944;9.240;2023-02-15T00:48:31;-0.90;99.90
6518;DHT22;3292;48.944;9.240;2023-02-15T00:50:59;-0.80;99.90
6518;DHT22;3292;48.944;9.240;2023-02-15T00:53:27;-0.80;99.90
6518;DHT22;3292;48.944;9.240;2023-02-15T00:55:54;-0.80;99.90
6518;DHT22;3292;48.944;9.240;2023-02-15T00:58:22;-0.80;99.90
6518;DHT22;3292;48.944;9.240;2023-02-15T01:00:49;-0.90;99.90
6518;DHT22;3292;48.944;9.240;2023-02-15T01:03:17;-1.00;99.90
6518;DHT22;3292;48.944;9.240;2023-02-15T01:05:46;-1.10;99.90
6518;DHT22;3292;48.944;9.240;2023-02-15T01:08:14;-1.10;99.90
6518;DHT22;3292;48.944;9.240;2023-02-15T01:10:41;-1.20;99.90
6518;DHT22;3292;48.944;9.240;2023-02-15T01:13:11;-1.20;99.90
6518;DHT22;3292;48.944;9.240;2023-02-15T01:15:39;-1.20;99.90
6518;DHT22;3292;48.944;9.240;2023-02-15T01:18:10;-1.20;99.90
6518;DHT22;3292;48.944;9.240;2023-02-15T01:20:39;-1.30;99.90
6518;DHT22;3292;48.944;9.240;2023-02-15T01:23:07;-1.40;99.90
6518;DHT22;3292;48.944;9.240;2023-02-15T01:25:37;-1.30;99.90
6518;DHT22;3292;48.944;9.240;2023-02-15T01:28:05;-1.30;99.90
6518;DHT22;3292;48.944;9.240;2023-02-15T01:30:32;-1.30;99.90
6518;DHT22;3292;48.944;9.240;2023-02-15T01:33:01;-1.30;99.90
6518;DHT22;3292;48.944;9.240;2023-02-15T01:35:29;-1.30;99.90
6518;DHT22;3292;48.944;9.240;2023-02-15T01:37:56;-1.30;99.90
6518;DHT22;3292;48.944;9.240;2023-02-15T01:40:24;-1.30;99.90
6518;DHT22;3292;48.944;9.240;2023-02-15T01:42:52;-1.30;99.90
6518;DHT22;3292;48.944;9.240;2023-02-15T01:45:24;-1.40;99.90
6518;DHT22;3292;48.944;9.240;2023-02-15T01:47:56;-1.40;99.90
6518;DHT22;3292;48.944;9.240;2023-02-15T01:50:29;-1.30;99.90
6518;DHT22;3292;48.944;9.240;2023-02-15T01:53:01;-1.30;99.90
6518;DHT22;3292;48.944;9.240;2023-02-15T01:55:36;-1.30;99.90
6518;DHT22;3292;48.944;9.240;2023-02-15T01:58:03;-1.30;99.90
6518;DHT22;3292;48.944;9.240;2023-02-15T02:00:30;-1.30;99.90
6518;DHT22;3292;48.944;9.240;2023-02-15T02:02:58;-1.30;99.90
6518;DHT22;3292;48.944;9.240;2023-02-15T02:05:26;-1.30;99.90
6518;DHT22;3292;48.944;9.240;2023-02-15T02:07:56;-1.30;99.90
6518;DHT22;3292;48.944;9.240;2023-02-15T02:10:25;-1.30;99.90
6518;DHT22;3292;48.944;9.240;2023-02-15T02:12:54;-1.30;99.90
6518;DHT22;3292;48.944;9.240;2023-02-15T02:15:24;-1.20;99.90
6518;DHT22;3292;48.944;9.240;2023-02-15T02:18:02;-1.20;99.90
6518;DHT22;3292;48.944;9.240;2023-02-15T02:20:50;-1.30;99.90
6518;DHT22;3292;48.944;9.240;2023-02-15T02:23:27;-1.30;99.90
6518;DHT22;3292;48.944;9.240;2023-02-15T02:29:22;-1.30;99.90
6518;DHT22;3292;48.944;9.240;2023-02-15T02:34:59;-1.40;99.90
6518;DHT22;3292;48.944;9.240;2023-02-15T02:37:34;-1.50;99.90
6518;DHT22;3292;48.944;9.240;2023-02-15T02:40:10;-1.70;99.90
6518;DHT22;3292;48.944;9.240;2023-02-15T02:42:41;-1.60;99.90
6518;DHT22;3292;48.944;9.240;2023-02-15T02:45:10;-1.60;99.90
6518;DHT22;3292;48.944;9.240;2023-02-15T02:47:41;-1.60;99.90
6518;DHT22;3292;48.944;9.240;2023-02-15T02:50:14;-1.60;99.90
6518;DHT22;3292;48.944;9.240;2023-02-15T02:52:43;-1.60;99.90
6518;DHT22;3292;48.944;9.240;2023-02-15T02:55:14;-1.50;99.90
6518;DHT22;3292;48.944;9.240;2023-02-15T02:57:47;-1.50;99.90
6518;DHT22;3292;48.944;9.240;2023-02-15T03:00:18;-1.60;99.90
6518;DHT22;3292;48.944;9.240;2023-02-15T03:02:48;-1.50;99.90
6518;DHT22;3292;48.944;9.240;2023-02-15T03:05:21;-1.40;99.90
6518;DHT22;3292;48.944;9.240;2023-02-15T03:07:52;-1.50;99.90
6518;DHT22;3292;48.944;9.240;2023-02-15T03:10:23;-1.40;99.90
6518;DHT22;3292;48.944;9.240;2023-02-15T03:12:52;-1.40;99.90
6518;DHT22;3292;48.944;9.240;2023-02-15T03:15:20;-1.40;99.90
6518;DHT22;3292;48.944;9.240;2023-02-15T03:17:51;-1.30;99.90
6518;DHT22;3292;48.944;9.240;2023-02-15T03:20:24;-1.30;99.90
6518;DHT22;3292;48.944;9.240;2023-02-15T03:22:55;-1.30;99.90
6518;DHT22;3292;48.944;9.240;2023-02-15T03:25:25;-1.30;99.90
6518;DHT22;3292;48.944;9.240;2023-02-15T03:27:56;-1.20;99.90
6518;DHT22;3292;48.944;9.240;2023-02-15T03:30:25;-1.10;99.90
6518;DHT22;3292;48.944;9.240;2023-02-15T03:32:56;-1.10;99.90
6518;DHT22;3292;48.944;9.240;2023-02-15T03:35:32;-1.00;99.90
6518;DHT22;3292;48.944;9.240;2023-02-15T03:38:01;-1.00;99.90
6518;DHT22;3292;48.944;9.240;2023-02-15T03:40:33;-1.10;99.90
6518;DHT22;3292;48.944;9.240;2023-02-15T03:43:23;-1.10;99.90
6518;DHT22;3292;48.944;9.240;2023-02-15T03:45:56;-1.20;99.90
6518;DHT22;3292;48.944;9.240;2023-02-15T03:48:28;-1.40;99.90
6518;DHT22;3292;48.944;9.240;2023-02-15T03:51:00;-1.60;99.90
6518;DHT22;3292;48.944;9.240;2023-02-15T03:53:47;-1.60;99.90
6518;DHT22;3292;48.944;9.240;2023-02-15T03:56:15;-1.50;99.90
6518;DHT22;3292;48.944;9.240;2023-02-15T03:58:42;-1.40;99.90
6518;DHT22;3292;48.944;9.240;2023-02-15T04:01:30;-1.50;99.90
6518;DHT22;3292;48.944;9.240;2023-02-15T04:04:32;-1.60;99.90
6518;DHT22;3292;48.944;9.240;2023-02-15T04:07:02;-1.60;99.90
6518;DHT22;3292;48.944;9.240;2023-02-15T04:09:29;-1.50;99.90
6518;DHT22;3292;48.944;9.240;2023-02-15T04:12:13;-1.50;99.90
6518;DHT22;3292;48.944;9.240;2023-02-15T04:14:40;-1.40;99.90
6518;DHT22;3292;48.944;9.240;2023-02-15T04:17:33;-1.50;99.90
6518;DHT22;3292;48.944;9.240;2023-02-15T04:20:00;-1.50;99.90
6518;DHT22;3292;48.944;9.240;2023-02-15T04:22:45;-1.50;99.90
6518;DHT22;3292;48.944;9.240;2023-02-15T04:25:30;-1.40;99.90
6518;DHT22;3292;48.944;9.240;2023-02-15T04:27:56;-1.40;99.90
6518;DHT22;3292;48.944;9.240;2023-02-15T04:30:24;-1.40;99.90
6518;DHT22;3292;48.944;9.240;2023-02-15T04:32:52;-1.40;99.90
6518;DHT22;3292;48.944;9.240;2023-02-15T04:35:19;-1.40;99.90
6518;DHT22;3292;48.944;9.240;2023-02-15T04:37:47;-1.50;99.90
6518;DHT22;3292;48.944;9.240;2023-02-15T04:40:15;-1.40;99.90
6518;DHT22;3292;48.944;9.240;2023-02-15T04:42:42;-1.30;99.90
6518;DHT22;3292;48.944;9.240;2023-02-15T04:45:09;-1.30;99.90
6518;DHT22;3292;48.944;9.240;2023-02-15T04:47:36;-1.40;99.90
6518;DHT22;3292;48.944;9.240;2023-02-15T04:50:03;-1.40;99.90
6518;DHT22;3292;48.944;9.240;2023-02-15T04:52:31;-1.40;99.90
6518;DHT22;3292;48.944;9.240;2023-02-15T04:54:59;-1.50;99.90
6518;DHT22;3292;48.944;9.240;2023-02-15T04:57:29;-1.70;99.90
6518;DHT22;3292;48.944;9.240;2023-02-15T04:59:55;-1.70;99.90
6518;DHT22;3292;48.944;9.240;2023-02-15T05:02:23;-1.60;99.90
6518;DHT22;3292;48.944;9.240;2023-02-15T05:04:50;-1.60;99.90
6518;DHT22;3292;48.944;9.240;2023-02-15T05:07:17;-1.60;99.90
6518;DHT22;3292;48.944;9.240;2023-02-15T05:09:45;-1.50;99.90
6518;DHT22;3292;48.944;9.240;2023-02-15T05:12:13;-1.60;99.90
6518;DHT22;3292;48.944;9.240;2023-02-15T05:14:40;-1.70;99.90
6518;DHT22;3292;48.944;9.240;2023-02-15T05:17:07;-1.70;99.90
6518;DHT22;3292;48.944;9.240;2023-02-15T05:19:34;-1.70;99.90
6518;DHT22;3292;48.944;9.240;2023-02-15T05:22:00;-1.70;99.90
6518;DHT22;3292;48.944;9.240;2023-02-15T05:24:27;-1.50;99.90
6518;DHT22;3292;48.944;9.240;2023-02-15T05:27:13;-1.50;99.90
6518;DHT22;3292;48.944;9.240;2023-02-15T05:29:57;-1.50;99.90
6518;DHT22;3292;48.944;9.240;2023-02-15T05:32:24;-1.50;99.90
6518;DHT22;3292;48.944;9.240;2023-02-15T05:34:51;-1.50;99.90
6518;DHT22;3292;48.944;9.240;2023-02-15T05:37:18;-1.60;99.90
6518;DHT22;3292;48.944;9.240;2023-02-15T05:39:45;-1.50;99.90
6518;DHT22;3292;48.944;9.240;2023-02-15T05:42:13;-1.50;99.90
6518;DHT22;3292;48.944;9.240;2023-02-15T05:44:40;-1.40;99.90
6518;DHT22;3292;48.944;9.240;2023-02-15T05:47:06;-1.50;99.90
6518;DHT22;3292;48.944;9.240;2023-02-15T05:49:33;-1.50;99.90
6518;DHT22;3292;48.944;9.240;2023-02-15T05:52:00;-1.50;99.90
6518;DHT22;3292;48.944;9.240;2023-02-15T05:54:28;-1.40;99.90
6518;DHT22;3292;48.944;9.240;2023-02-15T05:56:55;-1.40;99.90
6518;DHT22;3292;48.944;9.240;2023-02-15T05:59:23;-1.50;99.90
6518;DHT22;3292;48.944;9.240;2023-02-15T06:01:50;-1.50;99.90
6518;DHT22;3292;48.944;9.240;2023-02-15T06:04:17;-1.50;99.90
6518;DHT22;3292;48.944;9.240;2023-02-15T06:06:43;-1.50;99.90
6518;DHT22;3292;48.944;9.240;2023-02-15T06:09:11;-1.40;99.90
6518;DHT22;3292;48.944;9.240;2023-02-15T06:11:38;-1.50;99.90
6518;DHT22;3292;48.944;9.240;2023-02-15T06:14:05;-1.50;99.90
6518;DHT22;3292;48.944;9.240;2023-02-15T06:16:33;-1.50;99.90
6518;DHT22;3292;48.944;9.240;2023-02-15T06:19:00;-1.50;99.90
6518;DHT22;3292;48.944;9.240;2023-02-15T06:21:27;-1.60;99.90
6518;DHT22;3292;48.944;9.240;2023-02-15T06:23:54;-1.60;99.90
6518;DHT22;3292;48.944;9.240;2023-02-15T06:26:21;-1.70;99.90
6518;DHT22;3292;48.944;9.240;2023-02-15T06:28:47;-1.90;99.90
6518;DHT22;3292;48.944;9.240;2023-02-15T06:31:14;-1.90;99.90
6518;DHT22;3292;48.944;9.240;2023-02-15T06:33:43;-1.90;99.90
6518;DHT22;3292;48.944;9.240;2023-02-15T06:36:09;-1.80;99.90
6518;DHT22;3292;48.944;9.240;2023-02-15T06:38:38;-1.80;99.90
6518;DHT22;3292;48.944;9.240;2023-02-15T06:41:05;-1.70;99.90
6518;DHT22;3292;48.944;9.240;2023-02-15T06:43:31;-1.70;99.90
6518;DHT22;3292;48.944;9.240;2023-02-15T06:45:59;-1.60;99.90
6518;DHT22;3292;48.944;9.240;2023-02-15T06:48:26;-1.70;99.90
6518;DHT22;3292;48.944;9.240;2023-02-15T06:50:54;-1.70;99.90
6518;DHT22;3292;48.944;9.240;2023-02-15T06:53:21;-1.70;99.90
6518;DHT22;3292;48.944;9.240;2023-02-15T06:55:48;-1.70;99.90
6518;DHT22;3292;48.944;9.240;2023-02-15T06:58:14;-1.70;99.90
6518;DHT22;3292;48.944;9.240;2023-02-15T07:00:41;-1.70;99.90
6518;DHT22;3292;48.944;9.240;2023-02-15T07:03:08;-1.70;99.90
6518;DHT22;3292;48.944;9.240;2023-02-15T07:05:35;-1.70;99.90
6518;DHT22;3292;48.944;9.240;2023-02-15T07:08:03;-1.70;99.90
6518;DHT22;3292;48.944;9.240;2023-02-15T07:10:30;-1.70;99.90
6518;DHT22;3292;48.944;9.240;2023-02-15T07:12:57;-1.80;99.90
6518;DHT22;3292;48.944;9.240;2023-02-15T07:15:23;-1.80;99.90
6518;DHT22;3292;48.944;9.240;2023-02-15T07:17:50;-1.80;99.90
6518;DHT22;3292;48.944;9.240;2023-02-15T07:20:18;-1.90;99.90
6518;DHT22;3292;48.944;9.240;2023-02-15T07:22:46;-1.80;99.90
6518;DHT22;3292;48.944;9.240;2023-02-15T07:25:14;-1.80;99.90
6518;DHT22;3292;48.944;9.240;2023-02-15T07:27:41;-1.90;99.90
6518;DHT22;3292;48.944;9.240;2023-02-15T07:30:11;-1.80;99.90
6518;DHT22;3292;48.944;9.240;2023-02-15T07:32:38;-1.90;99.90
6518;DHT22;3292;48.944;9.240;2023-02-15T07:35:25;-1.80;99.90
6518;DHT22;3292;48.944;9.240;2023-02-15T07:37:52;-1.80;99.90
6518;DHT22;3292;48.944;9.240;2023-02-15T07:40:21;-1.80;99.90
6518;DHT22;3292;48.944;9.240;2023-02-15T07:42:49;-1.70;99.90
6518;DHT22;3292;48.944;9.240;2023-02-15T07:45:19;-1.70;99.90
6518;DHT22;3292;48.944;9.240;2023-02-15T07:47:46;-1.50;99.90
6518;DHT22;3292;48.944;9.240;2023-02-15T07:50:14;-1.50;99.90
6518;DHT22;3292;48.944;9.240;2023-02-15T07:52:41;-1.60;99.90
6518;DHT22;3292;48.944;9.240;2023-02-15T07:55:08;-1.50;99.90
6518;DHT22;3292;48.944;9.240;2023-02-15T07:57:41;-1.60;99.90
6518;DHT22;3292;48.944;9.240;2023-02-15T08:00:11;-1.80;99.90
6518;DHT22;3292;48.944;9.240;2023-02-15T08:02:39;-1.70;99.90
6518;DHT22;3292;48.944;9.240;2023-02-15T08:05:08;-1.60;99.90
6518;DHT22;3292;48.944;9.240;2023-02-15T08:07:40;-1.50;99.90
6518;DHT22;3292;48.944;9.240;2023-02-15T08:10:09;-1.40;99.90
6518;DHT22;3292;48.944;9.240;2023-02-15T08:12:57;-1.40;99.90
6518;DHT22;3292;48.944;9.240;2023-02-15T08:15:26;-1.40;99.90
6518;DHT22;3292;48.944;9.240;2023-02-15T08:17:56;-1.40;99.90
6518;DHT22;3292;48.944;9.240;2023-02-15T08:20:24;-1.40;99.90
6518;DHT22;3292;48.944;9.240;2023-02-15T08:22:52;-1.40;99.90
6518;DHT22;3292;48.944;9.240;2023-02-15T08:25:21;-1.40;99.90
6518;DHT22;3292;48.944;9.240;2023-02-15T08:27:49;-1.30;99.90
6518;DHT22;3292;48.944;9.240;2023-02-15T08:30:19;-1.30;99.90
6518;DHT22;3292;48.944;9.240;2023-02-15T08:32:48;-1.30;99.90
6518;DHT22;3292;48.944;9.240;2023-02-15T08:35:16;-1.30;99.90
6518;DHT22;3292;48.944;9.240;2023-02-15T08:37:44;-1.20;99.90
6518;DHT22;3292;48.944;9.240;2023-02-15T08:40:13;-1.20;99.90
6518;DHT22;3292;48.944;9.240;2023-02-15T08:42:42;-1.20;99.90
6518;DHT22;3292;48.944;9.240;2023-02-15T08:45:09;-1.20;99.90
6518;DHT22;3292;48.944;9.240;2023-02-15T08:47:38;-1.20;99.90
6518;DHT22;3292;48.944;9.240;2023-02-15T08:50:10;-1.10;99.90
6518;DHT22;3292;48.944;9.240;2023-02-15T08:52:47;-1.10;99.90
6518;DHT22;3292;48.944;9.240;2023-02-15T08:55:15;-1.10;99.90
6518;DHT22;3292;48.944;9.240;2023-02-15T08:57:42;-1.10;99.90
6518;DHT22;3292;48.944;9.240;2023-02-15T09:00:15;-1.10;99.90
6518;DHT22;3292;48.944;9.240;2023-02-15T09:02:50;-1.00;99.90
6518;DHT22;3292;48.944;9.240;2023-02-15T09:05:31;-1.00;99.90
6518;DHT22;3292;48.944;9.240;2023-02-15T09:08:00;-1.00;99.90
6518;DHT22;3292;48.944;9.240;2023-02-15T09:10:28;-0.80;99.90
6518;DHT22;3292;48.944;9.240;2023-02-15T09:12:56;-0.80;99.90
6518;DHT22;3292;48.944;9.240;2023-02-15T09:15:25;-0.80;99.90
6518;DHT22;3292;48.944;9.240;2023-02-15T09:17:54;-0.90;99.90
6518;DHT22;3292;48.944;9.240;2023-02-15T09:20:22;-0.90;99.90
6518;DHT22;3292;48.944;9.240;2023-02-15T09:22:51;-1.00;99.90
6518;DHT22;3292;48.944;9.240;2023-02-15T09:25:20;-1.00;99.90
6518;DHT22;3292;48.944;9.240;2023-02-15T09:27:50;-1.00;99.90
6518;DHT22;3292;48.944;9.240;2023-02-15T09:30:18;-0.90;99.90
6518;DHT22;3292;48.944;9.240;2023-02-15T09:32:45;-0.90;99.90
6518;DHT22;3292;48.944;9.240;2023-02-15T09:35:24;-0.80;99.90
6518;DHT22;3292;48.944;9.240;2023-02-15T09:37:52;-0.70;99.90
6518;DHT22;3292;48.944;9.240;2023-02-15T09:40:20;-0.60;99.90
6518;DHT22;3292;48.944;9.240;2023-02-15T09:43:10;-0.60;99.90
6518;DHT22;3292;48.944;9.240;2023-02-15T09:48:51;-0.70;99.90
6518;DHT22;3292;48.944;9.240;2023-02-15T09:51:40;-0.60;99.90
6518;DHT22;3292;48.944;9.240;2023-02-15T09:54:21;-0.60;99.90
6518;DHT22;3292;48.944;9.240;2023-02-15T09:56:58;-0.50;99.90
6518;DHT22;3292;48.944;9.240;2023-02-15T09:59:37;-0.40;99.90
6518;DHT22;3292;48.944;9.240;2023-02-15T10:02:20;-0.20;99.90
6518;DHT22;3292;48.944;9.240;2023-02-15T10:05:00;-0.20;99.90
6518;DHT22;3292;48.944;9.240;2023-02-15T10:08:13;-0.10;99.90
6518;DHT22;3292;48.944;9.240;2023-02-15T10:10:51;0.10;99.90
6518;DHT22;3292;48.944;9.240;2023-02-15T10:14:07;0.20;99.90
6518;DHT22;3292;48.944;9.240;2023-02-15T10:16:56;0.30;99.90
6518;DHT22;3292;48.944;9.240;2023-02-15T10:19:39;0.50;99.90
6518;DHT22;3292;48.944;9.240;2023-02-15T10:22:17;0.50;99.90
6518;DHT22;3292;48.944;9.240;2023-02-15T10:27:46;0.70;99.90
6518;DHT22;3292;48.944;9.240;2023-02-15T10:30:23;0.80;99.90
6518;DHT22;3292;48.944;9.240;2023-02-15T10:33:00;0.90;99.90
6518;DHT22;3292;48.944;9.240;2023-02-15T10:35:35;0.90;99.90
6518;DHT22;3292;48.944;9.240;2023-02-15T10:38:26;0.80;99.90
6518;DHT22;3292;48.944;9.240;2023-02-15T10:41:07;0.90;99.90
6518;DHT22;3292;48.944;9.240;2023-02-15T10:43:50;0.70;99.90
6518;DHT22;3292;48.944;9.240;2023-02-15T10:46:35;0.70;99.90
6518;DHT22;3292;48.944;9.240;2023-02-15T10:52:17;0.80;99.90
6518;DHT22;3292;48.944;9.240;2023-02-15T10:54:58;0.80;99.90
6518;DHT22;3292;48.944;9.240;2023-02-15T10:57:37;0.70;99.90
6518;DHT22;3292;48.944;9.240;2023-02-15T11:00:15;0.80;99.90
6518;DHT22;3292;48.944;9.240;2023-02-15T11:05:52;0.60;99.90
6518;DHT22;3292;48.944;9.240;2023-02-15T11:08:24;0.50;99.90
6518;DHT22;3292;48.944;9.240;2023-02-15T11:10:54;0.60;99.90
6518;DHT22;3292;48.944;9.240;2023-02-15T11:13:29;0.90;99.90
6518;DHT22;3292;48.944;9.240;2023-02-15T11:16:02;1.20;99.90
6518;DHT22;3292;48.944;9.240;2023-02-15T11:18:33;1.50;99.90
6518;DHT22;3292;48.944;9.240;2023-02-15T11:21:04;1.80;99.90
6518;DHT22;3292;48.944;9.240;2023-02-15T11:23:40;2.40;99.90
6518;DHT22;3292;48.944;9.240;2023-02-15T11:26:14;2.20;99.90
6518;DHT22;3292;48.944;9.240;2023-02-15T11:28:52;2.40;99.90
6518;DHT22;3292;48.944;9.240;2023-02-15T11:31:24;2.40;99.90
6518;DHT22;3292;48.944;9.240;2023-02-15T11:33:57;2.50;99.90
6518;DHT22;3292;48.944;9.240;2023-02-15T11:36:36;2.60;99.90
6518;DHT22;3292;48.944;9.240;2023-02-15T11:39:19;2.70;99.90
6518;DHT22;3292;48.944;9.240;2023-02-15T11:41:55;3.10;99.90
6518;DHT22;3292;48.944;9.240;2023-02-15T11:44:32;3.40;99.90
6518;DHT22;3292;48.944;9.240;2023-02-15T11:47:10;3.70;99.90
6518;DHT22;3292;48.944;9.240;2023-02-15T11:49:41;3.60;99.90
6518;DHT22;3292;48.944;9.240;2023-02-15T11:52:17;3.80;99.90
6518;DHT22;3292;48.944;9.240;2023-02-15T11:54:48;4.10;99.90
6518;DHT22;3292;48.944;9.240;2023-02-15T11:57:22;4.30;99.90
6518;DHT22;3292;48.944;9.240;2023-02-15T11:59:58;4.00;99.90
6518;DHT22;3292;48.944;9.240;2023-02-15T12:02:39;3.80;99.90
6518;DHT22;3292;48.944;9.240;2023-02-15T12:05:14;4.10;99.90
6518;DHT22;3292;48.944;9.240;2023-02-15T12:07:53;4.40;99.90
6518;DHT22;3292;48.944;9.240;2023-02-15T12:10:25;4.60;99.90
6518;DHT22;3292;48.944;9.240;2023-02-15T12:13:11;4.90;99.90
6518;DHT22;3292;48.944;9.240;2023-02-15T12:15:43;5.00;99.90
6518;DHT22;3292;48.944;9.240;2023-02-15T12:18:21;5.30;99.90
6518;DHT22;3292;48.944;9.240;2023-02-15T12:20:58;5.30;99.90
6518;DHT22;3292;48.944;9.240;2023-02-15T12:23:29;5.40;99.90
6518;DHT22;3292;48.944;9.240;2023-02-15T12:25:57;5.30;99.90
6518;DHT22;3292;48.944;9.240;2023-02-15T12:28:32;5.40;99.90
6518;DHT22;3292;48.944;9.240;2023-02-15T12:31:09;5.50;99.90
6518;DHT22;3292;48.944;9.240;2023-02-15T12:33:41;5.70;99.90
6518;DHT22;3292;48.944;9.240;2023-02-15T12:36:15;5.80;99.90
6518;DHT22;3292;48.944;9.240;2023-02-15T12:39:02;5.90;99.90
6518;DHT22;3292;48.944;9.240;2023-02-15T12:41:31;5.80;99.90
6518;DHT22;3292;48.944;9.240;2023-02-15T12:44:05;5.90;99.90
6518;DHT22;3292;48.944;9.240;2023-02-15T12:46:34;6.10;99.90
6518;DHT22;3292;48.944;9.240;2023-02-15T12:49:16;5.90;99.90
6518;DHT22;3292;48.944;9.240;2023-02-15T12:51:45;5.90;99.90
6518;DHT22;3292;48.944;9.240;2023-02-15T12:54:34;5.90;99.90
6518;DHT22;3292;48.944;9.240;2023-02-15T12:57:27;6.20;99.90
6518;DHT22;3292;48.944;9.240;2023-02-15T12:59:57;6.30;99.90
6518;DHT22;3292;48.944;9.240;2023-02-15T13:02:34;6.10;99.90
6518;DHT22;3292;48.944;9.240;2023-02-15T13:05:19;6.20;99.90
6518;DHT22;3292;48.944;9.240;2023-02-15T13:07:53;6.40;99.90
6518;DHT22;3292;48.944;9.240;2023-02-15T13:10:36;6.60;99.90
6518;DHT22;3292;48.944;9.240;2023-02-15T13:13:19;6.70;99.90
6518;DHT22;3292;48.944;9.240;2023-02-15T13:15:59;6.90;99.90
6518;DHT22;3292;48.944;9.240;2023-02-15T13:18:39;6.80;99.90
6518;DHT22;3292;48.944;9.240;2023-02-15T13:21:18;6.80;99.90
6518;DHT22;3292;48.944;9.240;2023-02-15T13:23:53;7.00;99.90
6518;DHT22;3292;48.944;9.240;2023-02-15T13:26:26;7.00;99.90
6518;DHT22;3292;48.944;9.240;2023-02-15T13:29:04;7.10;99.90
6518;DHT22;3292;48.944;9.240;2023-02-15T13:31:35;7.20;99.90
6518;DHT22;3292;48.944;9.240;2023-02-15T13:34:11;7.30;99.90
6518;DHT22;3292;48.944;9.240;2023-02-15T13:36:48;7.20;99.90
6518;DHT22;3292;48.944;9.240;2023-02-15T13:39:26;7.20;99.90
6518;DHT22;3292;48.944;9.240;2023-02-15T13:42:01;7.30;99.90
6518;DHT22;3292;48.944;9.240;2023-02-15T13:45:04;7.30;99.90
6518;DHT22;3292;48.944;9.240;2023-02-15T13:47:43;7.40;99.90
6518;DHT22;3292;48.944;9.240;2023-02-15T13:50:26;7.50;99.90
6518;DHT22;3292;48.944;9.240;2023-02-15T13:53:27;7.50;99.90
6518;DHT22;3292;48.944;9.240;2023-02-15T13:56:04;7.50;99.90
6518;DHT22;3292;48.944;9.240;2023-02-15T13:59:46;7.50;99.90
6518;DHT22;3292;48.944;9.240;2023-02-15T14:03:01;7.50;99.90
6518;DHT22;3292;48.944;9.240;2023-02-15T14:05:50;7.60;99.90
6518;DHT22;3292;48.944;9.240;2023-02-15T14:08:39;7.70;99.90
6518;DHT22;3292;48.944;9.240;2023-02-15T14:11:36;7.80;99.90
6518;DHT22;3292;48.944;9.240;2023-02-15T14:14:29;7.70;99.90
6518;DHT22;3292;48.944;9.240;2023-02-15T14:17:16;7.70;99.90
6518;DHT22;3292;48.944;9.240;2023-02-15T14:19:50;7.60;99.90
6518;DHT22;3292;48.944;9.240;2023-02-15T14:22:30;7.60;99.90
6518;DHT22;3292;48.944;9.240;2023-02-15T14:25:17;7.60;99.90
6518;DHT22;3292;48.944;9.240;2023-02-15T14:27:54;7.60;99.90
6518;DHT22;3292;48.944;9.240;2023-02-15T14:30:30;7.60;99.90
6518;DHT22;3292;48.944;9.240;2023-02-15T14:33:02;7.60;99.90
6518;DHT22;3292;48.944;9.240;2023-02-15T14:35:31;7.50;99.90
6518;DHT22;3292;48.944;9.240;2023-02-15T14:38:04;7.50;99.90
6518;DHT22;3292;48.944;9.240;2023-02-15T14:40:40;7.40;99.90
6518;DHT22;3292;48.944;9.240;2023-02-15T14:43:34;7.40;99.90
6518;DHT22;3292;48.944;9.240;2023-02-15T14:46:10;7.30;99.90
6518;DHT22;3292;48.944;9.240;2023-02-15T14:48:43;7.20;99.90
6518;DHT22;3292;48.944;9.240;2023-02-15T14:51:59;7.10;99.90
6518;DHT22;3292;48.944;9.240;2023-02-15T14:55:00;7.00;99.90
6518;DHT22;3292;48.944;9.240;2023-02-15T14:57:32;7.00;99.90
6518;DHT22;3292;48.944;9.240;2023-02-15T15:00:31;7.00;99.90
6518;DHT22;3292;48.944;9.240;2023-02-15T15:03:11;7.00;99.90
6518;DHT22;3292;48.944;9.240;2023-02-15T15:05:49;7.00;99.90
6518;DHT22;3292;48.944;9.240;2023-02-15T15:08:29;7.00;99.90
6518;DHT22;3292;48.944;9.240;2023-02-15T15:13:56;6.90;99.90
6518;DHT22;3292;48.944;9.240;2023-02-15T15:16:30;6.80;99.90
6518;DHT22;3292;48.944;9.240;2023-02-15T15:18:58;6.90;99.90
6518;DHT22;3292;48.944;9.240;2023-02-15T15:21:55;6.80;99.90
6518;DHT22;3292;48.944;9.240;2023-02-15T15:24:48;6.90;99.90
6518;DHT22;3292;48.944;9.240;2023-02-15T15:27:37;6.80;99.90
6518;DHT22;3292;48.944;9.240;2023-02-15T15:30:48;6.80;99.90
6518;DHT22;3292;48.944;9.240;2023-02-15T15:36:53;6.80;99.90
6518;DHT22;3292;48.944;9.240;2023-02-15T15:42:41;6.70;99.90
6518;DHT22;3292;48.944;9.240;2023-02-15T15:45:41;6.70;99.90
6518;DHT22;3292;48.944;9.240;2023-02-15T15:48:33;6.60;99.90
6518;DHT22;3292;48.944;9.240;2023-02-15T15:51:04;6.60;99.90
6518;DHT22;3292;48.944;9.240;2023-02-15T15:53:38;6.50;99.90
6518;DHT22;3292;48.944;9.240;2023-02-15T15:56:12;6.50;99.90
6518;DHT22;3292;48.944;9.240;2023-02-15T15:58:44;6.50;99.90
6518;DHT22;3292;48.944;9.240;2023-02-15T16:01:12;6.40;99.90
6518;DHT22;3292;48.944;9.240;2023-02-15T16:03:50;6.40;99.90
6518;DHT22;3292;48.944;9.240;2023-02-15T16:06:32;6.30;99.90
6518;DHT22;3292;48.944;9.240;2023-02-15T16:09:16;6.30;99.90
6518;DHT22;3292;48.944;9.240;2023-02-15T16:11:45;6.20;99.90
6518;DHT22;3292;48.944;9.240;2023-02-15T16:14:14;6.20;99.90
6518;DHT22;3292;48.944;9.240;2023-02-15T16:16:48;6.20;99.90
6518;DHT22;3292;48.944;9.240;2023-02-15T16:19:22;6.20;99.90
6518;DHT22;3292;48.944;9.240;2023-02-15T16:21:50;6.10;99.90
6518;DHT22;3292;48.944;9.240;2023-02-15T16:27:31;6.00;99.90
6518;DHT22;3292;48.944;9.240;2023-02-15T16:30:26;6.00;99.90
6518;DHT22;3292;48.944;9.240;2023-02-15T16:33:02;5.90;99.90
6518;DHT22;3292;48.944;9.240;2023-02-15T16:35:31;5.80;99.90
6518;DHT22;3292;48.944;9.240;2023-02-15T16:37:58;5.80;99.90
6518;DHT22;3292;48.944;9.240;2023-02-15T16:40:38;5.80;99.90
6518;DHT22;3292;48.944;9.240;2023-02-15T16:43:15;5.70;99.90
6518;DHT22;3292;48.944;9.240;2023-02-15T16:45:43;5.60;99.90
6518;DHT22;3292;48.944;9.240;2023-02-15T16:48:15;5.50;99.90
6518;DHT22;3292;48.944;9.240;2023-02-15T16:50:49;5.50;99.90
6518;DHT22;3292;48.944;9.240;2023-02-15T16:53:19;5.40;99.90
6518;DHT22;3292;48.944;9.240;2023-02-15T16:55:50;5.40;99.90
6518;DHT22;3292;48.944;9.240;2023-02-15T16:58:27;5.20;99.90
6518;DHT22;3292;48.944;9.240;2023-02-15T17:00:57;5.20;99.90
6518;DHT22;3292;48.944;9.240;2023-02-15T17:03:26;5.10;99.90
6518;DHT22;3292;48.944;9.240;2023-02-15T17:05:55;5.00;99.90
6518;DHT22;3292;48.944;9.240;2023-02-15T17:08:30;4.90;99.90
6518;DHT22;3292;48.944;9.240;2023-02-15T17:11:11;4.80;99.90
6518;DHT22;3292;48.944;9.240;2023-02-15T17:13:38;4.70;99.90
6518;DHT22;3292;48.944;9.240;2023-02-15T17:16:28;4.60;99.90
6518;DHT22;3292;48.944;9.240;2023-02-15T17:18:57;4.50;99.90
6518;DHT22;3292;48.944;9.240;2023-02-15T17:21:30;4.40;99.90